Terminal Aerodrome Forecast
Issued by NWS

Home | Current Version | Previous Version | Text Only | Print | Product List | Glossary On
Versions: 1 2 3 4 5 6 7 8 9 10 11 12 13 14 15 16 17 18 19 20 21 22 23 24 25
000
FTUS44 KOUN 081120
TAFHBR
TAF
KHBR 081120Z 0812/0912 31011KT P6SM SKC
     FM081500 34018G26KT P6SM SKC
     FM081700 35028G36KT P6SM FEW250
     FM090000 35013G21KT P6SM SCT250
     FM090100 35011KT P6SM BKN250=

USA.gov is the U.S. government's official web portal to all federal, state and local government web resources and services.